createdAt,value
2023-02-27T00:01:51.226Z,36.70
2023-02-27T00:04:17.976Z,35.72
2023-02-27T00:06:44.638Z,31.70
2023-02-27T00:09:11.283Z,30.02
2023-02-27T00:11:38.450Z,28.60
2023-02-27T00:14:05.507Z,26.40
2023-02-27T00:16:32.197Z,21.38
2023-02-27T00:19:01.161Z,22.10
2023-02-27T00:21:28.287Z,28.00
2023-02-27T00:23:55.398Z,26.25
2023-02-27T00:26:22.212Z,27.05
2023-02-27T00:28:49.100Z,27.17
2023-02-27T00:31:15.876Z,22.20
2023-02-27T00:33:42.596Z,25.60
2023-02-27T00:36:09.365Z,19.10
2023-02-27T00:38:36.051Z,17.27
2023-02-27T00:41:02.836Z,14.40
2023-02-27T00:43:29.492Z,13.20
2023-02-27T00:45:56.472Z,13.75
2023-02-27T00:48:23.341Z,13.70
2023-02-27T00:50:50.781Z,13.57
2023-02-27T00:53:20.739Z,12.48
2023-02-27T00:55:47.536Z,16.60
2023-02-27T00:58:14.169Z,15.07
2023-02-27T01:00:40.862Z,14.60
2023-02-27T01:03:07.724Z,15.38
2023-02-27T01:05:34.410Z,16.10
2023-02-27T01:08:01.133Z,15.88
2023-02-27T01:10:29.131Z,14.68
2023-02-27T01:12:55.812Z,17.65
2023-02-27T01:15:22.739Z,18.00
2023-02-27T01:17:49.381Z,15.48
2023-02-27T01:20:16.599Z,17.95
2023-02-27T01:22:45.648Z,18.33
2023-02-27T01:25:12.998Z,15.48
2023-02-27T01:27:40.585Z,15.50
2023-02-27T01:30:08.191Z,13.82
2023-02-27T01:32:34.879Z,18.50
2023-02-27T01:35:01.524Z,12.68
2023-02-27T01:37:28.235Z,11.75
2023-02-27T01:39:54.941Z,11.07
2023-02-27T01:42:27.011Z,13.95
2023-02-27T01:45:12.338Z,11.60
2023-02-27T01:47:44.820Z,11.02
2023-02-27T01:50:13.410Z,14.38
2023-02-27T01:52:41.774Z,12.00
2023-02-27T01:55:12.656Z,17.13
2023-02-27T01:57:41.394Z,15.60
2023-02-27T02:00:09.237Z,14.32
2023-02-27T02:02:44.419Z,14.45
2023-02-27T02:05:14.697Z,14.10
2023-02-27T02:07:44.509Z,14.88
2023-02-27T02:10:12.388Z,15.07
2023-02-27T02:12:40.482Z,11.75
2023-02-27T02:15:09.564Z,11.95
2023-02-27T02:17:54.847Z,13.13
2023-02-27T02:20:26.833Z,12.43
2023-02-27T02:23:15.852Z,16.25
2023-02-27T02:25:45.232Z,14.52
2023-02-27T02:28:20.710Z,22.15
2023-02-27T02:31:15.212Z,17.35
2023-02-27T02:34:10.193Z,19.58
2023-02-27T02:37:17.106Z,12.70
2023-02-27T02:40:07.994Z,13.13
2023-02-27T02:43:00.359Z,10.13
2023-02-27T02:45:34.070Z,9.73
2023-02-27T02:48:22.460Z,10.73
2023-02-27T02:51:16.790Z,8.98
2023-02-27T02:53:49.468Z,9.23
2023-02-27T02:56:16.064Z,9.25
2023-02-27T02:59:10.966Z,10.05
2023-02-27T03:01:53.848Z,12.32
2023-02-27T03:04:30.630Z,8.82
2023-02-27T03:07:19.495Z,8.80
2023-02-27T03:09:53.198Z,10.30
2023-02-27T03:12:25.078Z,8.90
2023-02-27T03:14:58.956Z,10.68
2023-02-27T03:17:35.145Z,10.88
2023-02-27T03:20:08.625Z,11.85
2023-02-27T03:22:40.016Z,11.43
2023-02-27T03:25:11.877Z,11.50
2023-02-27T03:27:57.695Z,12.30
2023-02-27T03:30:34.996Z,12.50
2023-02-27T03:33:13.856Z,13.00
2023-02-27T03:36:22.776Z,11.63
2023-02-27T03:39:05.509Z,17.05
2023-02-27T03:41:43.900Z,10.45
2023-02-27T03:44:52.351Z,9.98
2023-02-27T03:47:19.613Z,10.43
2023-02-27T03:49:46.358Z,12.48
2023-02-27T03:52:14.745Z,8.02
2023-02-27T03:54:54.139Z,9.98
2023-02-27T03:57:20.941Z,9.15
2023-02-27T03:59:47.798Z,9.95
2023-02-27T04:02:15.595Z,15.55
2023-02-27T04:04:43.288Z,11.02
2023-02-27T04:07:55.321Z,10.35
2023-02-27T04:10:32.283Z,9.40
2023-02-27T04:13:11.000Z,8.43
2023-02-27T04:15:52.605Z,10.05
2023-02-27T04:18:39.746Z,8.35
2023-02-27T04:21:06.299Z,11.50
2023-02-27T04:23:41.618Z,10.35
2023-02-27T04:26:23.715Z,10.63
2023-02-27T04:29:03.793Z,13.10
2023-02-27T04:31:55.149Z,12.20
2023-02-27T04:34:42.249Z,10.88
2023-02-27T04:37:19.997Z,12.13
2023-02-27T04:40:02.433Z,15.90
2023-02-27T04:42:33.069Z,11.55
2023-02-27T04:45:04.230Z,12.00
2023-02-27T04:47:35.933Z,13.45
2023-02-27T04:50:10.798Z,10.27
2023-02-27T04:52:41.635Z,10.48
2023-02-27T04:55:21.828Z,10.05
2023-02-27T04:57:53.313Z,11.65
2023-02-27T05:00:23.385Z,10.82
2023-02-27T05:03:14.251Z,13.10
2023-02-27T05:05:43.833Z,10.90
2023-02-27T05:08:26.105Z,10.82
2023-02-27T05:11:09.818Z,11.20
2023-02-27T05:13:49.303Z,13.05
2023-02-27T05:16:45.249Z,14.27
2023-02-27T05:19:12.564Z,12.93
2023-02-27T05:21:46.876Z,14.65
2023-02-27T05:24:23.788Z,12.60
2023-02-27T05:27:06.064Z,11.73
2023-02-27T05:29:41.192Z,14.63
2023-02-27T05:32:33.684Z,19.33
2023-02-27T05:35:20.754Z,12.68
2023-02-27T05:37:59.938Z,14.13
2023-02-27T05:40:33.013Z,12.88
2023-02-27T05:43:31.512Z,14.20
2023-02-27T05:46:05.599Z,17.98
2023-02-27T05:48:45.813Z,13.75
2023-02-27T05:51:14.560Z,16.30
2023-02-27T05:53:48.266Z,15.73
2023-02-27T05:56:18.682Z,14.75
2023-02-27T05:58:56.731Z,13.95
2023-02-27T06:01:23.422Z,17.35
2023-02-27T06:03:50.072Z,13.40
2023-02-27T06:06:19.354Z,13.43
2023-02-27T06:08:46.205Z,13.02
2023-02-27T06:11:13.185Z,13.52
2023-02-27T06:13:41.946Z,14.75
2023-02-27T06:16:11.932Z,14.98
2023-02-27T06:18:38.673Z,17.55
2023-02-27T06:21:05.510Z,18.05
2023-02-27T06:23:32.498Z,16.60
2023-02-27T06:25:59.157Z,30.27
2023-02-27T06:28:25.928Z,21.75
2023-02-27T06:30:57.502Z,17.25
2023-02-27T06:33:25.961Z,38.63
2023-02-27T06:35:53.117Z,47.75
2023-02-27T06:38:20.073Z,44.13
2023-02-27T06:40:46.772Z,42.55
2023-02-27T06:43:14.706Z,40.20
2023-02-27T06:45:41.349Z,28.63
2023-02-27T06:48:09.892Z,24.58
2023-02-27T06:50:36.511Z,33.72
2023-02-27T06:53:03.234Z,26.13
2023-02-27T06:55:29.880Z,25.08
2023-02-27T06:57:56.648Z,25.75
2023-02-27T07:00:23.763Z,29.40
2023-02-27T07:02:50.544Z,28.85
2023-02-27T07:05:18.017Z,28.08
2023-02-27T07:07:45.108Z,26.42
2023-02-27T07:10:13.950Z,25.05
2023-02-27T07:12:41.321Z,24.17
2023-02-27T07:15:08.897Z,22.45
2023-02-27T07:17:35.577Z,24.38
2023-02-27T07:20:02.357Z,19.83
2023-02-27T07:22:29.559Z,22.00
2023-02-27T07:24:56.388Z,21.25
2023-02-27T07:27:23.326Z,27.98
2023-02-27T07:29:49.981Z,27.77
2023-02-27T07:32:16.788Z,25.08
2023-02-27T07:34:43.438Z,25.15
2023-02-27T07:37:10.097Z,30.95
2023-02-27T07:39:36.809Z,26.75
2023-02-27T07:42:03.585Z,24.75
2023-02-27T07:44:30.195Z,26.48
2023-02-27T07:47:07.089Z,21.20
2023-02-27T07:49:33.724Z,23.30
2023-02-27T07:52:00.459Z,20.98
2023-02-27T07:54:27.517Z,23.80
2023-02-27T07:56:54.206Z,21.17
2023-02-27T07:59:20.838Z,26.50
2023-02-27T08:01:47.524Z,20.10
2023-02-27T08:04:14.233Z,23.45
2023-02-27T08:06:41.256Z,25.58
2023-02-27T08:09:08.296Z,20.13
2023-02-27T08:11:34.935Z,19.77
2023-02-27T08:14:02.412Z,27.08
2023-02-27T08:16:31.747Z,25.58
2023-02-27T08:18:59.413Z,26.55
2023-02-27T08:21:27.354Z,31.20
2023-02-27T08:23:54.463Z,28.92
2023-02-27T08:26:21.316Z,22.33
2023-02-27T08:28:48.041Z,21.25
2023-02-27T08:31:14.777Z,17.77
2023-02-27T08:33:41.813Z,17.52
2023-02-27T08:36:09.881Z,19.77
2023-02-27T08:38:36.513Z,21.40
2023-02-27T08:41:03.755Z,21.85
2023-02-27T08:43:30.422Z,22.63
2023-02-27T08:45:57.491Z,23.05
2023-02-27T08:48:24.829Z,23.08
2023-02-27T08:50:51.880Z,23.38
2023-02-27T08:53:19.060Z,23.75
2023-02-27T08:55:50.181Z,24.15
2023-02-27T08:58:18.174Z,24.73
2023-02-27T09:00:45.648Z,26.65
2023-02-27T09:03:12.571Z,25.10
2023-02-27T09:05:40.399Z,26.08
2023-02-27T09:08:07.540Z,29.75
2023-02-27T09:10:34.616Z,29.77
2023-02-27T09:13:01.549Z,29.50
2023-02-27T09:15:28.408Z,26.17
2023-02-27T09:17:58.182Z,25.35
2023-02-27T09:20:25.348Z,26.65
2023-02-27T09:22:52.052Z,26.13
2023-02-27T09:25:19.076Z,26.52
2023-02-27T09:27:45.782Z,25.58
2023-02-27T09:30:12.753Z,27.50
2023-02-27T09:32:39.442Z,28.77
2023-02-27T09:35:06.592Z,28.52
2023-02-27T09:37:33.584Z,29.60
2023-02-27T09:40:00.372Z,28.88
2023-02-27T09:42:45.219Z,29.50
2023-02-27T09:45:23.466Z,31.25
2023-02-27T09:47:57.976Z,29.58
2023-02-27T09:50:46.984Z,28.80
2023-02-27T09:53:32.319Z,30.77
2023-02-27T09:56:27.936Z,31.08
2023-02-27T09:59:09.465Z,30.48
2023-02-27T10:01:52.517Z,30.20
2023-02-27T10:04:37.773Z,30.75
2023-02-27T10:07:17.094Z,30.60
2023-02-27T10:09:52.811Z,32.20
2023-02-27T10:12:50.987Z,31.65
2023-02-27T10:15:25.819Z,30.90
2023-02-27T10:20:30.780Z,32.20
2023-02-27T10:23:03.382Z,30.98
2023-02-27T10:25:35.031Z,32.42
2023-02-27T10:28:12.171Z,31.35
2023-02-27T10:30:39.473Z,30.40
2023-02-27T10:33:33.914Z,40.92
2023-02-27T10:36:02.832Z,28.45
2023-02-27T10:38:37.396Z,28.40
2023-02-27T10:41:05.503Z,29.95
2023-02-27T10:43:32.208Z,30.33
2023-02-27T10:46:07.152Z,29.88
2023-02-27T10:48:34.192Z,30.23
2023-02-27T10:51:31.660Z,31.65
2023-02-27T10:54:31.316Z,30.58
2023-02-27T10:57:02.183Z,34.45
2023-02-27T10:59:33.584Z,29.88
2023-02-27T11:02:21.310Z,31.45
2023-02-27T11:04:56.787Z,31.88
2023-02-27T11:07:34.917Z,33.22
2023-02-27T11:10:12.114Z,33.67
2023-02-27T11:12:39.554Z,34.97
2023-02-27T11:15:15.428Z,34.63
2023-02-27T11:17:43.196Z,32.20
2023-02-27T11:20:31.936Z,32.67
2023-02-27T11:23:24.952Z,32.20
2023-02-27T11:26:08.991Z,31.42
2023-02-27T11:28:35.649Z,33.97
2023-02-27T11:31:06.241Z,33.53
2023-02-27T11:33:39.779Z,32.00
2023-02-27T11:36:07.677Z,35.28
2023-02-27T11:38:34.711Z,35.28
2023-02-27T11:41:07.239Z,32.30
2023-02-27T11:43:39.875Z,31.45
2023-02-27T11:46:46.056Z,31.45
2023-02-27T11:49:13.591Z,29.88
2023-02-27T11:51:58.727Z,34.50
2023-02-27T11:54:49.034Z,32.85
2023-02-27T11:57:35.311Z,33.40
2023-02-27T12:00:20.863Z,31.13
2023-02-27T12:03:13.398Z,29.67
2023-02-27T12:05:45.339Z,31.98
2023-02-27T12:08:18.656Z,31.60
2023-02-27T12:10:55.610Z,32.10
2023-02-27T12:13:30.111Z,32.00
2023-02-27T12:16:07.705Z,33.70
2023-02-27T12:18:52.871Z,32.10
2023-02-27T12:21:22.127Z,31.33
2023-02-27T12:23:58.457Z,32.42
2023-02-27T12:26:29.814Z,34.67
2023-02-27T12:29:27.830Z,31.83
2023-02-27T12:32:02.844Z,35.50
2023-02-27T12:34:56.533Z,36.83
2023-02-27T12:37:25.956Z,35.97
2023-02-27T12:39:55.517Z,35.25
2023-02-27T12:42:32.993Z,34.47
2023-02-27T12:45:23.298Z,32.03
2023-02-27T12:48:11.521Z,31.15
2023-02-27T12:51:02.411Z,30.50
2023-02-27T12:54:00.774Z,35.33
2023-02-27T12:56:37.788Z,32.95
2023-02-27T12:59:39.344Z,31.45
2023-02-27T13:02:24.568Z,29.23
2023-02-27T13:07:55.355Z,28.02
2023-02-27T13:13:11.507Z,30.17
2023-02-27T13:15:50.896Z,29.35
2023-02-27T13:18:38.808Z,34.00
2023-02-27T13:21:18.666Z,34.92
2023-02-27T13:24:13.898Z,34.95
2023-02-27T13:26:46.423Z,34.58
2023-02-27T13:29:15.953Z,34.15
2023-02-27T13:31:55.200Z,32.60
2023-02-27T13:34:43.451Z,36.38
2023-02-27T13:37:10.633Z,35.22
2023-02-27T13:39:46.884Z,34.25
2023-02-27T13:42:25.747Z,34.63
2023-02-27T13:45:00.647Z,31.48
2023-02-27T13:47:33.060Z,31.20
2023-02-27T13:50:24.112Z,33.45
2023-02-27T13:52:51.522Z,31.95
2023-02-27T13:55:36.736Z,32.15
2023-02-27T14:00:37.703Z,33.35
2023-02-27T14:03:20.142Z,32.92
2023-02-27T14:05:51.817Z,35.08
2023-02-27T14:08:34.049Z,31.95
2023-02-27T14:11:14.092Z,33.03
2023-02-27T14:13:54.612Z,32.42
2023-02-27T14:16:40.242Z,33.13
2023-02-27T14:19:17.079Z,34.55
2023-02-27T14:21:52.363Z,37.22
2023-02-27T14:24:23.937Z,33.25
2023-02-27T14:26:53.161Z,34.03
2023-02-27T14:29:24.173Z,34.83
2023-02-27T14:31:52.837Z,32.35
2023-02-27T14:34:22.575Z,37.88
2023-02-27T14:36:53.624Z,34.63
2023-02-27T14:39:33.166Z,35.15
2023-02-27T14:42:39.050Z,35.20
2023-02-27T14:47:40.688Z,33.75
2023-02-27T14:50:22.963Z,34.10
2023-02-27T14:52:49.718Z,34.72
2023-02-27T14:55:34.180Z,34.03
2023-02-27T14:58:24.229Z,33.95
2023-02-27T15:01:07.609Z,34.63
2023-02-27T15:03:52.670Z,34.67
2023-02-27T15:06:20.690Z,34.97
2023-02-27T15:08:51.265Z,39.17
2023-02-27T15:11:22.027Z,42.80
2023-02-27T15:13:56.070Z,36.67
2023-02-27T15:16:34.465Z,33.80
2023-02-27T15:19:22.692Z,30.52
2023-02-27T15:21:55.565Z,35.58
2023-02-27T15:24:33.223Z,32.80
2023-02-27T15:27:12.448Z,34.92
2023-02-27T15:29:44.721Z,33.28
2023-02-27T15:32:21.771Z,34.58
2023-02-27T15:34:48.655Z,35.40
2023-02-27T15:37:26.191Z,45.22
2023-02-27T15:39:54.284Z,36.55
2023-02-27T15:42:25.558Z,32.70
2023-02-27T15:44:53.318Z,36.42
2023-02-27T15:47:25.782Z,30.50
2023-02-27T15:50:00.147Z,29.48
2023-02-27T15:52:31.506Z,30.25
2023-02-27T15:55:04.389Z,30.42
2023-02-27T15:57:32.733Z,30.77
2023-02-27T16:00:00.663Z,30.55
2023-02-27T16:02:39.762Z,32.00
2023-02-27T16:05:14.319Z,29.15
2023-02-27T16:07:42.797Z,29.45
2023-02-27T16:10:24.321Z,31.65
2023-02-27T16:12:51.028Z,30.75
2023-02-27T16:15:31.056Z,30.52
2023-02-27T16:18:01.240Z,31.48
2023-02-27T16:20:30.332Z,30.67
2023-02-27T16:23:20.743Z,31.85
2023-02-27T16:26:01.766Z,24.17
2023-02-27T16:28:49.588Z,25.10
2023-02-27T16:31:25.249Z,24.23
2023-02-27T16:33:52.908Z,24.55
2023-02-27T16:36:22.832Z,24.25
2023-02-27T16:38:49.875Z,24.33
2023-02-27T16:41:19.068Z,24.52
2023-02-27T16:43:48.898Z,25.98
2023-02-27T16:46:22.131Z,24.48
2023-02-27T16:48:54.465Z,25.25
2023-02-27T16:51:24.157Z,24.48
2023-02-27T16:53:55.666Z,24.88
2023-02-27T16:56:37.256Z,30.95
2023-02-27T16:59:04.931Z,25.65
2023-02-27T17:01:33.990Z,24.63
2023-02-27T17:04:01.239Z,24.20
2023-02-27T17:06:28.507Z,25.65
2023-02-27T17:08:55.957Z,25.10
2023-02-27T17:11:23.027Z,25.15
2023-02-27T17:13:49.777Z,25.08
2023-02-27T17:16:16.808Z,25.08
2023-02-27T17:18:43.470Z,25.80
2023-02-27T17:21:10.115Z,25.30
2023-02-27T17:23:37.347Z,24.63
2023-02-27T17:26:04.315Z,27.83
2023-02-27T17:28:31.097Z,29.02
2023-02-27T17:30:57.960Z,30.83
2023-02-27T17:33:24.747Z,27.35
2023-02-27T17:35:52.891Z,25.17
2023-02-27T17:38:19.623Z,161.25
2023-02-27T17:40:46.246Z,26.80
2023-02-27T17:43:13.253Z,26.70
2023-02-27T17:45:40.249Z,26.40
2023-02-27T17:48:07.424Z,27.10
2023-02-27T17:50:34.431Z,25.88
2023-02-27T17:53:01.215Z,24.98
2023-02-27T17:55:28.094Z,26.50
2023-02-27T17:57:55.114Z,24.95
2023-02-27T18:00:22.334Z,26.65
2023-02-27T18:02:49.161Z,27.90
2023-02-27T18:05:16.161Z,57.80
2023-02-27T18:07:42.815Z,34.95
2023-02-27T18:10:10.309Z,35.15
2023-02-27T18:12:37.269Z,28.38
2023-02-27T18:15:05.793Z,26.08
2023-02-27T18:17:32.811Z,31.67
2023-02-27T18:20:00.399Z,26.10
2023-02-27T18:22:27.288Z,28.75
2023-02-27T18:24:54.958Z,25.35
2023-02-27T18:27:22.355Z,27.58
2023-02-27T18:29:52.104Z,29.00
2023-02-27T18:32:18.956Z,25.75
2023-02-27T18:34:45.864Z,27.30
2023-02-27T18:37:12.670Z,25.23
2023-02-27T18:39:39.564Z,26.67
2023-02-27T18:42:06.873Z,25.05
2023-02-27T18:44:33.876Z,25.50
2023-02-27T18:47:00.663Z,25.95
2023-02-27T18:49:27.694Z,23.70
2023-02-27T18:51:54.397Z,24.40
2023-02-27T18:54:21.537Z,24.90
2023-02-27T18:56:50.658Z,23.35
2023-02-27T18:59:17.644Z,24.35
2023-02-27T19:01:44.427Z,25.48
2023-02-27T19:04:11.382Z,24.30
2023-02-27T19:06:42.077Z,25.67
2023-02-27T19:09:11.801Z,34.63
2023-02-27T19:11:38.938Z,29.13
2023-02-27T19:14:11.955Z,61.05
2023-02-27T19:16:38.979Z,34.25
2023-02-27T19:19:07.531Z,29.67
2023-02-27T19:21:35.030Z,37.45
2023-02-27T19:24:02.432Z,26.83
2023-02-27T19:26:31.861Z,25.88
2023-02-27T19:28:58.610Z,24.77
2023-02-27T19:31:25.514Z,25.88
2023-02-27T19:33:52.829Z,25.35
2023-02-27T19:36:21.675Z,22.95
2023-02-27T19:38:49.044Z,23.75
2023-02-27T19:41:19.559Z,23.33
2023-02-27T19:43:47.066Z,24.45
2023-02-27T19:46:16.801Z,30.35
2023-02-27T19:48:43.933Z,22.95
2023-02-27T19:51:13.566Z,23.38
2023-02-27T19:53:42.300Z,23.92
2023-02-27T19:56:12.872Z,24.30
2023-02-27T19:58:39.780Z,24.52
2023-02-27T20:01:07.105Z,22.98
2023-02-27T20:03:35.350Z,23.15
2023-02-27T20:06:06.356Z,23.25
2023-02-27T20:08:34.073Z,23.58
2023-02-27T20:11:04.412Z,23.52
2023-02-27T20:13:31.814Z,23.50
2023-02-27T20:16:00.918Z,22.33
2023-02-27T20:18:29.926Z,23.30
2023-02-27T20:21:04.675Z,23.55
2023-02-27T20:23:33.031Z,22.70
2023-02-27T20:26:00.340Z,23.23
2023-02-27T20:28:28.370Z,23.73
2023-02-27T20:30:55.751Z,25.20
2023-02-27T20:33:22.437Z,23.67
2023-02-27T20:35:49.185Z,25.70
2023-02-27T20:38:19.869Z,23.55
2023-02-27T20:40:46.669Z,22.92
2023-02-27T20:43:13.406Z,24.83
2023-02-27T20:45:40.810Z,24.17
2023-02-27T20:48:07.750Z,25.60
2023-02-27T20:50:34.929Z,24.13
2023-02-27T20:53:01.625Z,23.80
2023-02-27T20:55:32.776Z,23.48
2023-02-27T20:57:59.999Z,23.13
2023-02-27T21:00:26.936Z,22.55
2023-02-27T21:02:54.117Z,24.20
2023-02-27T21:05:20.995Z,22.48
2023-02-27T21:07:47.772Z,22.92
2023-02-27T21:10:14.452Z,30.38
2023-02-27T21:12:41.186Z,77.68
2023-02-27T21:15:08.656Z,107.90
2023-02-27T21:17:35.361Z,59.95
2023-02-27T21:20:06.796Z,50.08
2023-02-27T21:22:34.539Z,35.92
2023-02-27T21:25:01.347Z,25.92
2023-02-27T21:27:28.378Z,63.85
2023-02-27T21:29:55.135Z,29.25
2023-02-27T21:32:22.090Z,25.00
2023-02-27T21:34:48.822Z,23.17
2023-02-27T21:37:15.452Z,23.45
2023-02-27T21:39:42.163Z,22.77
2023-02-27T21:42:09.158Z,23.67
2023-02-27T21:44:35.771Z,24.50
2023-02-27T21:47:09.801Z,23.65
2023-02-27T21:49:37.140Z,24.88
2023-02-27T21:52:03.896Z,22.55
2023-02-27T21:54:31.071Z,23.20
2023-02-27T21:57:01.701Z,23.77
2023-02-27T21:59:29.304Z,22.75
2023-02-27T22:01:58.560Z,28.98
2023-02-27T22:04:25.524Z,24.23
2023-02-27T22:06:52.964Z,23.13
2023-02-27T22:09:20.434Z,24.80
2023-02-27T22:11:47.899Z,26.33
2023-02-27T22:14:15.288Z,25.17
2023-02-27T22:16:42.126Z,27.98
2023-02-27T22:19:12.675Z,24.05
2023-02-27T22:21:39.989Z,23.48
2023-02-27T22:24:07.471Z,53.05
2023-02-27T22:26:34.917Z,79.88
2023-02-27T22:29:01.674Z,70.88
2023-02-27T22:31:32.725Z,25.48
2023-02-27T22:34:10.106Z,31.02
2023-02-27T22:36:37.299Z,27.73
2023-02-27T22:39:05.732Z,26.13
2023-02-27T22:41:35.846Z,26.25
2023-02-27T22:44:03.170Z,26.50
2023-02-27T22:46:33.072Z,30.98
2023-02-27T22:49:02.472Z,22.85
2023-02-27T22:51:30.527Z,23.35
2023-02-27T22:53:59.484Z,22.58
2023-02-27T22:56:26.846Z,25.20
2023-02-27T22:58:53.568Z,23.02
2023-02-27T23:01:23.036Z,23.17
2023-02-27T23:03:51.574Z,22.90
2023-02-27T23:06:20.925Z,35.00
2023-02-27T23:08:47.969Z,29.02
2023-02-27T23:11:16.078Z,27.77
2023-02-27T23:13:42.899Z,22.48
2023-02-27T23:16:13.672Z,22.25
2023-02-27T23:18:42.123Z,22.20
2023-02-27T23:21:09.721Z,22.27
2023-02-27T23:23:36.777Z,25.73
2023-02-27T23:26:05.630Z,22.73
2023-02-27T23:28:34.301Z,22.35
2023-02-27T23:31:01.866Z,22.00
2023-02-27T23:33:29.827Z,21.73
2023-02-27T23:35:57.582Z,21.83
2023-02-27T23:38:25.548Z,22.38
2023-02-27T23:40:52.127Z,21.63
2023-02-27T23:43:18.756Z,21.60
2023-02-27T23:45:45.520Z,21.67
2023-02-27T23:48:12.988Z,22.02
2023-02-27T23:50:44.055Z,22.63
2023-02-27T23:53:13.734Z,22.77
2023-02-27T23:55:41.462Z,21.63
2023-02-27T23:58:10.113Z,22.42
